Time;durP1;ratioP1;P1;durP2;ratioP2;P2;SDS_P1;SDS_P2;PMS_P1;PMS_P2;Temp;Humidity;BMP_temperature;BMP_pressure;BME280_temperature;BME280_humidity;BME280_pressure;Samples;Min_cycle;Max_cycle;Signal;HPM_P1;HPM_P2
2021/05/17 00:00:18;;;;;;;1.25;0.93;;;11.40;96.70;;;;;;5070026;28;20187;-79
2021/05/17 00:02:48;;;;;;;1.50;0.90;;;11.40;96.10;;;;;;5076800;28;20220;-79
2021/05/17 00:05:17;;;;;;;1.02;0.60;;;11.30;95.40;;;;;;5076648;28;20213;-79
2021/05/17 00:07:45;;;;;;;1.25;0.98;;;11.40;95.40;;;;;;5072070;28;20815;-81
2021/05/17 00:10:12;;;;;;;1.00;0.90;;;11.40;94.80;;;;;;5059179;28;20210;-78
2021/05/17 00:12:40;;;;;;;0.60;0.60;;;11.40;94.30;;;;;;5060398;28;20217;-79
2021/05/17 00:15:11;;;;;;;2.83;1.10;;;11.40;93.90;;;;;;5063299;28;20250;-78
2021/05/17 00:17:38;;;;;;;1.27;0.75;;;11.40;93.60;;;;;;5066592;28;20240;-79
2021/05/17 00:20:06;;;;;;;0.88;0.88;;;11.50;93.20;;;;;;5066702;28;20215;-80
2021/05/17 00:22:35;;;;;;;2.28;0.93;;;11.40;93.10;;;;;;5064296;28;20195;-79
2021/05/17 00:25:02;;;;;;;1.83;0.82;;;11.40;92.60;;;;;;5061491;28;20286;-80
2021/05/17 00:27:29;;;;;;;1.13;0.80;;;11.40;92.40;;;;;;5059843;28;20226;-80
2021/05/17 00:29:56;;;;;;;1.85;0.80;;;11.50;91.90;;;;;;5060042;28;20301;-79
2021/05/17 00:32:22;;;;;;;1.10;0.80;;;11.50;91.90;;;;;;5059642;28;20230;-79
2021/05/17 00:34:49;;;;;;;1.52;0.63;;;11.50;91.90;;;;;;5060601;28;20226;-80
2021/05/17 00:37:16;;;;;;;2.00;0.90;;;11.40;91.90;;;;;;5064634;28;20245;-80
2021/05/17 00:39:43;;;;;;;2.17;1.20;;;11.50;91.70;;;;;;5070473;28;20206;-79
2021/05/17 00:42:10;;;;;;;1.73;0.90;;;11.50;91.00;;;;;;5067108;28;20203;-80
2021/05/17 00:44:40;;;;;;;1.15;1.05;;;11.40;91.30;;;;;;5067242;28;20198;-80
2021/05/17 00:47:12;;;;;;;1.70;0.50;;;11.40;91.50;;;;;;5064683;28;20581;-79
2021/05/17 00:49:39;;;;;;;1.23;0.88;;;11.40;91.20;;;;;;5061131;28;20234;-79
2021/05/17 00:52:07;;;;;;;1.08;0.98;;;11.40;91.50;;;;;;5062501;28;20203;-79
2021/05/17 00:54:33;;;;;;;2.10;0.80;;;11.40;91.10;;;;;;5063751;28;20257;-79
2021/05/17 00:57:01;;;;;;;1.05;0.70;;;11.40;91.00;;;;;;5066314;28;20227;-80
2021/05/17 00:59:28;;;;;;;0.73;0.60;;;11.40;90.40;;;;;;5063589;28;20207;-80
2021/05/17 01:01:55;;;;;;;1.05;0.85;;;11.30;90.50;;;;;;5062313;28;20242;-80
2021/05/17 01:04:21;;;;;;;3.00;0.70;;;11.30;90.60;;;;;;5065995;28;20266;-79
2021/05/17 01:06:51;;;;;;;3.15;0.73;;;11.30;90.80;;;;;;5070476;28;20214;-79
2021/05/17 01:09:17;;;;;;;1.30;0.90;;;11.30;90.60;;;;;;5063484;28;20210;-80
2021/05/17 01:11:44;;;;;;;1.13;0.90;;;11.40;90.70;;;;;;5072516;28;20222;-79
2021/05/17 01:14:14;;;;;;;2.15;1.30;;;11.30;90.80;;;;;;5072732;28;20219;-79
2021/05/17 01:16:41;;;;;;;2.10;0.90;;;11.30;90.60;;;;;;5075415;28;20226;-80
2021/05/17 01:19:12;;;;;;;0.85;0.82;;;11.40;90.70;;;;;;5072618;28;20214;-79
2021/05/17 01:21:40;;;;;;;0.88;0.88;;;11.40;91.30;;;;;;5061620;28;20217;-80
2021/05/17 01:24:09;;;;;;;3.08;1.08;;;11.40;91.40;;;;;;5060286;28;20248;-80
2021/05/17 01:26:37;;;;;;;1.38;0.60;;;11.40;91.50;;;;;;5061772;28;20265;-79
2021/05/17 01:29:05;;;;;;;1.10;0.88;;;11.40;91.10;;;;;;5074355;28;20199;-79
2021/05/17 01:31:32;;;;;;;1.73;0.82;;;11.40;90.80;;;;;;5068857;28;20213;-80
2021/05/17 01:33:59;;;;;;;2.65;0.93;;;11.40;90.60;;;;;;5063830;28;20222;-79
2021/05/17 01:36:26;;;;;;;2.25;1.30;;;11.40;91.10;;;;;;5073753;28;20252;-79
2021/05/17 01:38:56;;;;;;;0.73;0.73;;;11.30;91.10;;;;;;5073756;28;20202;-79
2021/05/17 01:41:26;;;;;;;0.90;0.70;;;11.30;90.70;;;;;;5063423;28;20242;-79
2021/05/17 01:43:55;;;;;;;0.70;0.70;;;11.30;90.60;;;;;;5071456;28;20216;-80
2021/05/17 01:46:24;;;;;;;1.02;0.52;;;11.30;90.50;;;;;;5059196;28;20217;-80
2021/05/17 01:48:50;;;;;;;1.40;1.05;;;11.30;90.90;;;;;;5060609;28;20610;-79
2021/05/17 01:51:18;;;;;;;1.98;0.90;;;11.30;90.20;;;;;;5057945;28;20229;-78
2021/05/17 01:53:47;;;;;;;1.42;0.70;;;11.30;90.20;;;;;;5054178;28;20222;-78
2021/05/17 01:56:15;;;;;;;1.00;0.90;;;11.30;90.90;;;;;;5054087;28;20302;-79
2021/05/17 01:58:43;;;;;;;3.10;0.95;;;11.30;90.90;;;;;;5053546;28;20241;-79
2021/05/17 02:01:12;;;;;;;1.80;0.85;;;11.30;90.10;;;;;;5054116;28;20202;-80
2021/05/17 02:03:41;;;;;;;1.00;0.80;;;11.30;89.70;;;;;;5054467;28;20285;-79
2021/05/17 02:06:08;;;;;;;0.70;0.70;;;11.30;90.00;;;;;;5054737;28;20257;-79
2021/05/17 02:08:41;;;;;;;3.03;1.00;;;11.30;89.80;;;;;;5054316;28;20210;-79
2021/05/17 02:11:10;;;;;;;1.92;0.90;;;11.20;89.30;;;;;;5056303;28;20183;-80
2021/05/17 02:13:38;;;;;;;5.95;0.85;;;11.20;89.40;;;;;;5059934;28;20229;-78
2021/05/17 02:16:07;;;;;;;2.72;1.02;;;11.20;89.00;;;;;;5054576;28;20317;-78
2021/05/17 02:18:37;;;;;;;1.08;0.60;;;11.20;89.30;;;;;;5055327;28;20213;-79
2021/05/17 02:21:05;;;;;;;3.13;0.80;;;11.20;87.90;;;;;;5059713;28;20218;-79
2021/05/17 02:23:31;;;;;;;0.88;0.75;;;11.20;87.70;;;;;;5062875;28;20217;-78
2021/05/17 02:25:59;;;;;;;1.27;0.70;;;11.20;85.80;;;;;;5062139;28;20234;-78
2021/05/17 02:28:26;;;;;;;0.85;0.65;;;11.20;85.80;;;;;;5056065;28;20257;-79
2021/05/17 02:30:53;;;;;;;0.93;0.90;;;11.20;85.80;;;;;;5054423;28;20207;-79
2021/05/17 02:33:21;;;;;;;0.50;0.50;;;11.20;85.80;;;;;;5054626;28;20294;-79
2021/05/17 02:35:47;;;;;;;0.70;0.50;;;11.20;84.80;;;;;;5053840;28;20230;-79
2021/05/17 02:38:14;;;;;;;0.68;0.65;;;11.20;83.60;;;;;;5055577;28;20198;-79
2021/05/17 02:40:41;;;;;;;0.50;0.50;;;11.20;84.50;;;;;;5056058;28;20206;-79
2021/05/17 02:43:09;;;;;;;1.02;0.75;;;11.20;85.80;;;;;;5056698;28;20242;-78
2021/05/17 02:45:37;;;;;;;1.73;0.95;;;11.20;85.80;;;;;;5070811;28;20208;-82
2021/05/17 02:48:06;;;;;;;1.27;0.60;;;11.10;85.70;;;;;;5077773;28;20191;-82
2021/05/17 02:50:35;;;;;;;1.10;0.60;;;11.20;86.30;;;;;;5059637;28;20262;-78
2021/05/17 02:53:23;;;;;;;3.38;1.05;;;11.20;85.80;;;;;;5055390;28;20212;-79
2021/05/17 02:55:53;;;;;;;1.55;0.60;;;11.10;85.70;;;;;;5056081;28;20605;-79
2021/05/17 02:58:22;;;;;;;2.50;0.95;;;11.20;85.50;;;;;;5054735;28;20191;-78
2021/05/17 03:00:51;;;;;;;2.55;0.93;;;11.20;84.20;;;;;;5055148;28;20241;-78
2021/05/17 03:03:22;;;;;;;7.45;0.73;;;11.20;84.00;;;;;;5055089;28;20223;-79
2021/05/17 03:05:56;;;;;;;1.20;0.82;;;11.20;83.00;;;;;;5057318;28;20234;-78
2021/05/17 03:08:30;;;;;;;0.60;0.50;;;11.20;81.60;;;;;;5055769;28;20240;-78
2021/05/17 03:10:58;;;;;;;1.30;0.60;;;11.20;81.60;;;;;;5059511;28;20205;-79
2021/05/17 03:13:26;;;;;;;1.88;0.63;;;11.20;81.90;;;;;;5062059;28;20202;-77
2021/05/17 03:15:52;;;;;;;3.85;0.85;;;11.10;82.80;;;;;;5059887;28;20234;-79
2021/05/17 03:18:19;;;;;;;2.78;0.90;;;11.10;82.80;;;;;;5056837;28;20717;-79
2021/05/17 03:20:46;;;;;;;2.03;1.33;;;11.10;84.50;;;;;;5055897;28;20194;-79
2021/05/17 03:23:15;;;;;;;2.15;1.23;;;11.10;84.90;;;;;;5054977;28;20206;-79
2021/05/17 03:25:44;;;;;;;1.15;0.90;;;11.10;84.90;;;;;;5059486;28;20222;-78
2021/05/17 03:28:11;;;;;;;2.58;0.77;;;11.10;85.70;;;;;;5055560;28;20206;-78
2021/05/17 03:30:37;;;;;;;3.13;0.82;;;11.00;85.60;;;;;;5055203;28;20301;-78
2021/05/17 03:33:04;;;;;;;2.90;1.17;;;11.00;85.60;;;;;;5055434;28;20297;-78
2021/05/17 03:35:31;;;;;;;2.58;0.80;;;11.00;85.60;;;;;;5060296;28;20226;-79
2021/05/17 03:37:58;;;;;;;2.55;0.93;;;11.00;86.00;;;;;;5073442;28;20234;-80
2021/05/17 03:40:25;;;;;;;4.88;0.88;;;11.00;86.70;;;;;;5076525;28;20447;-80
2021/05/17 03:42:52;;;;;;;2.33;1.05;;;11.00;89.00;;;;;;5070345;28;20202;-79
2021/05/17 03:45:18;;;;;;;3.42;1.10;;;10.90;90.70;;;;;;5059767;28;20285;-79
2021/05/17 03:47:45;;;;;;;1.95;1.15;;;10.80;91.60;;;;;;5075866;28;20221;-79
2021/05/17 03:50:13;;;;;;;1.48;0.80;;;10.70;92.60;;;;;;5076067;28;20190;-79
2021/05/17 03:52:40;;;;;;;2.30;0.77;;;10.70;93.20;;;;;;5073786;28;20186;-79
2021/05/17 03:55:08;;;;;;;0.80;0.80;;;10.70;93.80;;;;;;5070238;28;20226;-79
2021/05/17 03:57:36;;;;;;;2.42;1.00;;;10.70;94.00;;;;;;5055684;28;20218;-79
2021/05/17 04:00:07;;;;;;;3.03;0.95;;;10.70;94.10;;;;;;5057924;28;20203;-79
2021/05/17 04:02:34;;;;;;;1.58;0.90;;;10.70;93.60;;;;;;5059765;28;20191;-79
2021/05/17 04:05:09;;;;;;;2.63;0.70;;;10.80;93.40;;;;;;5061061;28;20202;-80
2021/05/17 04:08:03;;;;;;;2.95;1.25;;;10.70;92.60;;;;;;5062245;28;20221;-80
2021/05/17 04:13:20;;;;;;;1.40;0.80;;;10.70;91.60;;;;;;5063366;28;20625;-79
2021/05/17 04:15:48;;;;;;;2.35;1.20;;;10.70;91.10;;;;;;5059545;28;20282;-79
2021/05/17 04:18:16;;;;;;;1.13;0.93;;;10.70;90.50;;;;;;5056097;28;20194;-78
2021/05/17 04:20:43;;;;;;;1.20;0.80;;;10.70;90.90;;;;;;5057386;28;20202;-79
2021/05/17 04:23:10;;;;;;;3.25;0.98;;;10.70;90.70;;;;;;5057580;28;20218;-80
2021/05/17 04:25:36;;;;;;;0.90;0.70;;;10.80;90.50;;;;;;5058036;28;20207;-78
2021/05/17 04:28:03;;;;;;;1.63;0.95;;;10.80;89.90;;;;;;5056095;28;20210;-79
2021/05/17 04:30:31;;;;;;;4.50;1.10;;;10.80;89.40;;;;;;5066048;28;20206;-81
2021/05/17 04:32:58;;;;;;;3.50;0.82;;;10.80;88.40;;;;;;5070787;28;20210;-81
2021/05/17 04:35:24;;;;;;;0.75;0.75;;;10.80;88.20;;;;;;5073906;28;20220;-79
2021/05/17 04:37:51;;;;;;;2.33;1.30;;;10.80;88.90;;;;;;5075450;28;20250;-83
2021/05/17 04:40:17;;;;;;;3.58;1.05;;;10.80;89.20;;;;;;5076178;28;20187;-83
2021/05/17 04:42:44;;;;;;;2.90;0.80;;;10.90;88.50;;;;;;5075606;28;20195;-83
2021/05/17 04:45:11;;;;;;;2.05;0.88;;;11.00;87.70;;;;;;5071216;28;20210;-80
2021/05/17 04:47:39;;;;;;;2.00;1.00;;;11.10;85.70;;;;;;5059157;28;20249;-78
2021/05/17 04:50:07;;;;;;;2.45;0.80;;;11.30;84.30;;;;;;5061859;28;20284;-78
2021/05/17 04:52:34;;;;;;;1.50;0.70;;;11.40;82.30;;;;;;5070997;28;20214;-81
2021/05/17 04:55:00;;;;;;;4.07;0.95;;;11.50;82.60;;;;;;5070480;28;20229;-80
2021/05/17 04:57:27;;;;;;;4.60;0.77;;;11.60;82.70;;;;;;5068827;28;20292;-79
2021/05/17 04:59:53;;;;;;;6.60;1.00;;;11.80;83.20;;;;;;5072940;28;20206;-80
2021/05/17 05:02:20;;;;;;;1.88;1.00;;;11.60;79.80;;;;;;5070950;28;20236;-80
2021/05/17 05:04:47;;;;;;;3.95;0.98;;;11.50;81.90;;;;;;5069093;28;20205;-76
2021/05/17 05:07:15;;;;;;;4.25;1.50;;;11.40;83.30;;;;;;5061215;28;20249;-79
2021/05/17 05:09:41;;;;;;;1.50;0.70;;;11.20;85.50;;;;;;5076163;28;20213;-78
2021/05/17 05:12:08;;;;;;;3.38;1.10;;;11.20;86.90;;;;;;5078941;28;20238;-79
2021/05/17 05:14:35;;;;;;;1.73;0.70;;;11.20;86.60;;;;;;5081815;28;20218;-77
2021/05/17 05:17:01;;;;;;;1.17;1.02;;;11.10;86.30;;;;;;5078080;28;20226;-79
2021/05/17 05:19:28;;;;;;;2.20;1.00;;;11.10;87.30;;;;;;5076988;28;20292;-79
2021/05/17 05:21:55;;;;;;;4.95;1.15;;;11.00;86.80;;;;;;5078418;28;20229;-80
2021/05/17 05:24:21;;;;;;;2.10;0.88;;;11.00;87.80;;;;;;5078425;28;20202;-79
2021/05/17 05:26:58;;;;;;;1.95;1.00;;;10.90;89.40;;;;;;5081722;28;20238;-79
2021/05/17 05:29:31;;;;;;;3.28;1.23;;;10.90;90.30;;;;;;5089119;28;20209;-79
2021/05/17 05:32:00;;;;;;;1.48;1.08;;;10.90;90.00;;;;;;5092638;28;20210;-80
2021/05/17 05:34:29;;;;;;;2.95;1.38;;;11.00;90.20;;;;;;5097280;28;20233;-79
2021/05/17 05:36:58;;;;;;;4.10;1.65;;;11.10;89.60;;;;;;5089300;28;20230;-79
2021/05/17 05:39:25;;;;;;;1.00;0.90;;;11.20;88.40;;;;;;5083217;28;20205;-78
2021/05/17 05:41:52;;;;;;;3.83;1.10;;;11.10;87.40;;;;;;5071066;28;20610;-78
2021/05/17 05:44:20;;;;;;;1.88;0.90;;;11.00;87.70;;;;;;5070913;28;20218;-78
2021/05/17 05:46:47;;;;;;;3.00;0.88;;;11.00;89.50;;;;;;5063291;28;20232;-79
2021/05/17 05:49:14;;;;;;;2.47;0.65;;;11.10;89.30;;;;;;5071172;28;20624;-79
2021/05/17 05:51:41;;;;;;;3.63;0.85;;;11.00;86.50;;;;;;5057919;28;20232;-79
2021/05/17 05:54:09;;;;;;;2.05;0.80;;;11.10;87.00;;;;;;5060368;28;20234;-79
2021/05/17 05:56:36;;;;;;;2.30;0.93;;;11.10;85.70;;;;;;5063573;28;20230;-79
2021/05/17 05:59:02;;;;;;;1.10;0.65;;;11.10;85.70;;;;;;5068045;28;20377;-79
2021/05/17 06:01:29;;;;;;;1.58;0.95;;;11.20;85.80;;;;;;5076074;28;20195;-78
2021/05/17 06:03:56;;;;;;;2.47;1.20;;;11.30;84.90;;;;;;5066227;28;20634;-79
2021/05/17 06:06:22;;;;;;;1.35;0.70;;;11.40;83.40;;;;;;5084193;28;20217;-79
2021/05/17 06:08:50;;;;;;;1.52;0.80;;;11.50;83.50;;;;;;5072377;28;20638;-79
2021/05/17 06:11:18;;;;;;;1.15;0.55;;;11.80;81.00;;;;;;5064546;28;20202;-78
2021/05/17 06:13:46;;;;;;;1.50;0.63;;;12.00;79.80;;;;;;5061752;28;20210;-79
2021/05/17 06:16:13;;;;;;;1.67;1.00;;;12.60;75.70;;;;;;5060559;28;20561;-78
2021/05/17 06:18:40;;;;;;;1.70;0.70;;;13.30;68.10;;;;;;5060755;28;20213;-79
2021/05/17 06:21:08;;;;;;;0.77;0.60;;;13.60;64.00;;;;;;5060385;28;20211;-78
2021/05/17 06:23:34;;;;;;;1.65;0.60;;;14.20;60.90;;;;;;5061755;28;20222;-81
2021/05/17 06:26:01;;;;;;;1.67;0.60;;;14.70;58.70;;;;;;5066823;28;20227;-80
2021/05/17 06:28:29;;;;;;;0.82;0.82;;;15.30;54.50;;;;;;5068601;28;20292;-80
2021/05/17 06:30:59;;;;;;;1.70;0.70;;;15.30;53.10;;;;;;5066414;28;20240;-80
2021/05/17 06:33:27;;;;;;;2.75;0.80;;;15.40;54.10;;;;;;5067619;28;20302;-80
2021/05/17 06:35:56;;;;;;;1.17;0.70;;;15.50;53.40;;;;;;5066350;28;20230;-80
2021/05/17 06:38:24;;;;;;;0.60;0.60;;;15.70;50.80;;;;;;5065466;28;20453;-81
2021/05/17 06:40:52;;;;;;;1.47;0.90;;;15.50;50.90;;;;;;5065932;28;20465;-80
2021/05/17 06:43:19;;;;;;;2.97;0.82;;;14.90;52.70;;;;;;5064341;28;20438;-80
2021/05/17 06:45:47;;;;;;;1.95;0.98;;;14.30;53.80;;;;;;5064307;28;20300;-79
2021/05/17 06:48:13;;;;;;;2.45;0.70;;;14.00;55.30;;;;;;5067214;28;20233;-80
2021/05/17 06:50:40;;;;;;;0.73;0.70;;;13.70;57.50;;;;;;5069798;28;20202;-79
2021/05/17 06:53:07;;;;;;;1.17;0.80;;;13.50;59.20;;;;;;5077334;28;20712;-80
2021/05/17 06:55:38;;;;;;;3.55;0.80;;;13.80;59.30;;;;;;5081997;28;20218;-79
2021/05/17 06:58:15;;;;;;;1.35;0.80;;;14.20;57.90;;;;;;5082811;28;20236;-80
2021/05/17 07:00:42;;;;;;;3.50;0.80;;;14.40;53.40;;;;;;5082849;28;20204;-79
2021/05/17 07:03:11;;;;;;;2.15;0.80;;;14.20;55.00;;;;;;5082508;28;20202;-80
2021/05/17 07:05:39;;;;;;;1.10;0.50;;;14.40;53.30;;;;;;5077847;28;20284;-79
2021/05/17 07:13:35;;;;;;;1.33;0.75;;;14.10;55.00;;;;;;5082062;28;20216;-79
2021/05/17 07:16:02;;;;;;;3.13;0.73;;;14.00;57.30;;;;;;5068662;28;20262;-80
2021/05/17 07:18:29;;;;;;;2.28;0.80;;;13.90;58.80;;;;;;5062188;28;20289;-79
2021/05/17 07:23:43;;;;;;;0.85;0.70;;;13.30;63.80;;;;;;5078290;28;20439;-83
2021/05/17 07:26:13;;;;;;;0.98;0.85;;;13.00;70.30;;;;;;5079289;28;20748;-81
2021/05/17 07:28:40;;;;;;;3.38;1.20;;;12.70;74.10;;;;;;5080631;28;20205;-82
2021/05/17 07:31:08;;;;;;;3.47;1.20;;;12.70;76.30;;;;;;5066916;28;20281;-80
2021/05/17 07:33:37;;;;;;;3.08;1.20;;;12.70;76.00;;;;;;5060887;28;20209;-79
2021/05/17 07:36:04;;;;;;;2.38;1.00;;;12.80;72.50;;;;;;5061600;28;20257;-81
2021/05/17 07:38:32;;;;;;;4.88;1.30;;;13.00;71.90;;;;;;5060842;28;20203;-79
2021/05/17 07:41:00;;;;;;;1.35;1.20;;;13.40;70.70;;;;;;5058268;28;20581;-80
2021/05/17 07:43:27;;;;;;;2.38;0.90;;;13.80;67.60;;;;;;5075711;28;20202;-80
2021/05/17 07:45:54;;;;;;;2.22;1.10;;;14.00;67.20;;;;;;5079540;28;20248;-81
2021/05/17 07:48:21;;;;;;;3.65;1.48;;;14.00;63.90;;;;;;5081470;28;20285;-79
2021/05/17 07:50:49;;;;;;;1.83;0.95;;;14.20;63.90;;;;;;5084384;28;20452;-81
2021/05/17 07:53:16;;;;;;;2.40;1.00;;;14.40;62.70;;;;;;5068437;28;20265;-80
2021/05/17 07:55:43;;;;;;;3.03;1.00;;;15.00;61.00;;;;;;5064731;28;20500;-80
2021/05/17 07:58:10;;;;;;;0.80;0.80;;;15.50;56.50;;;;;;5065144;28;20209;-82
2021/05/17 08:00:37;;;;;;;4.17;1.17;;;15.40;54.70;;;;;;5065466;28;20431;-80
2021/05/17 08:03:03;;;;;;;1.80;0.70;;;15.00;57.10;;;;;;5074727;28;20468;-80
2021/05/17 08:05:33;;;;;;;1.60;0.90;;;14.90;57.80;;;;;;5085960;28;20431;-79
2021/05/17 08:08:01;;;;;;;1.00;0.70;;;14.60;56.50;;;;;;5083507;28;20243;-79
2021/05/17 08:10:27;;;;;;;2.72;1.00;;;14.30;59.00;;;;;;5085038;28;20419;-80
2021/05/17 08:12:54;;;;;;;1.83;1.15;;;14.10;60.10;;;;;;5081829;28;20201;-80
2021/05/17 08:15:22;;;;;;;5.28;1.33;;;14.30;60.00;;;;;;5084064;28;20217;-78
2021/05/17 08:17:48;;;;;;;1.98;1.20;;;14.10;60.00;;;;;;5073257;28;20341;-80
2021/05/17 08:20:15;;;;;;;3.25;0.73;;;13.90;62.20;;;;;;5064289;28;20202;-80
2021/05/17 08:22:42;;;;;;;1.10;1.00;;;13.60;61.90;;;;;;5064759;28;20750;-80
2021/05/17 08:25:10;;;;;;;2.35;0.75;;;13.20;62.60;;;;;;5070608;28;20202;-80
2021/05/17 08:27:37;;;;;;;3.30;1.13;;;12.90;64.80;;;;;;5076744;28;20241;-79
2021/05/17 08:30:06;;;;;;;2.00;0.90;;;12.70;67.90;;;;;;5062661;28;20234;-80
2021/05/17 08:32:33;;;;;;;2.67;1.23;;;12.60;71.80;;;;;;5067663;28;20193;-80
2021/05/17 08:34:59;;;;;;;5.47;1.40;;;12.60;75.30;;;;;;5087494;28;20229;-81
2021/05/17 08:37:30;;;;;;;2.25;1.30;;;12.60;78.60;;;;;;5096646;28;20198;-80
2021/05/17 08:39:56;;;;;;;2.90;0.93;;;12.40;79.70;;;;;;5094215;28;20642;-82
2021/05/17 08:42:26;;;;;;;2.00;0.80;;;12.30;82.60;;;;;;5086283;28;20202;-81
2021/05/17 08:44:53;;;;;;;5.15;1.00;;;12.10;81.30;;;;;;5078682;28;20362;-80
2021/05/17 08:47:23;;;;;;;1.92;1.23;;;12.00;82.90;;;;;;5080308;28;20252;-79
2021/05/17 08:49:49;;;;;;;2.50;0.98;;;12.30;86.80;;;;;;5080154;28;20187;-79
2021/05/17 08:52:19;;;;;;;2.78;0.98;;;12.70;86.20;;;;;;5080972;28;20250;-80
2021/05/17 08:54:46;;;;;;;2.60;1.02;;;13.10;82.80;;;;;;5088652;28;20708;-80
2021/05/17 08:57:15;;;;;;;2.58;1.10;;;13.10;76.30;;;;;;5096511;28;20206;-77
2021/05/17 08:59:43;;;;;;;4.53;1.20;;;13.20;74.90;;;;;;5098202;28;20258;-78
2021/05/17 09:02:11;;;;;;;5.75;1.48;;;13.40;75.20;;;;;;5099410;28;20479;-78
2021/05/17 09:04:38;;;;;;;3.20;1.15;;;13.50;73.10;;;;;;5098476;28;20649;-78
2021/05/17 09:07:04;;;;;;;5.07;1.23;;;13.40;72.40;;;;;;5097833;28;20229;-79
2021/05/17 09:09:32;;;;;;;7.13;6.43;;;13.40;70.70;;;;;;5096466;28;20193;-80
2021/05/17 09:12:00;;;;;;;4.88;2.85;;;13.40;70.70;;;;;;5095142;28;20598;-78
2021/05/17 09:14:28;;;;;;;2.47;1.10;;;13.50;67.40;;;;;;5093640;28;20221;-79
2021/05/17 09:16:58;;;;;;;4.45;1.30;;;13.40;65.90;;;;;;5095636;28;20229;-78
2021/05/17 09:19:26;;;;;;;3.15;1.10;;;13.50;67.40;;;;;;5087163;28;20355;-78
2021/05/17 09:22:02;;;;;;;1.90;1.00;;;13.60;66.40;;;;;;5076702;28;20194;-79
2021/05/17 09:24:37;;;;;;;2.00;1.00;;;13.40;65.70;;;;;;5070520;28;20195;-79
2021/05/17 09:27:05;;;;;;;1.75;1.30;;;13.40;65.20;;;;;;5073142;28;20238;-79
2021/05/17 09:29:36;;;;;;;2.25;0.85;;;13.50;64.70;;;;;;5075861;28;20206;-79
2021/05/17 09:32:17;;;;;;;4.72;2.05;;;13.60;64.20;;;;;;5074687;28;20199;-78
2021/05/17 09:34:46;;;;;;;1.70;0.70;;;13.80;64.80;;;;;;5072715;28;20217;-79
2021/05/17 09:37:13;;;;;;;2.70;0.88;;;14.10;61.20;;;;;;5074084;28;20249;-79
2021/05/17 09:39:49;;;;;;;1.10;0.75;;;14.30;60.10;;;;;;5089365;28;20218;-79
2021/05/17 09:42:15;;;;;;;1.00;0.68;;;14.40;56.80;;;;;;5097176;28;20220;-78
2021/05/17 09:44:45;;;;;;;6.95;1.35;;;13.60;61.90;;;;;;5081982;28;20218;-79
2021/05/17 09:47:16;;;;;;;3.80;0.55;;;13.10;64.00;;;;;;5067571;28;20253;-80
2021/05/17 09:49:46;;;;;;;1.00;0.70;;;12.70;70.10;;;;;;5072021;28;20210;-81
2021/05/17 09:52:15;;;;;;;2.70;0.98;;;12.00;74.40;;;;;;5085162;28;20212;-80
2021/05/17 09:54:55;;;;;;;0.75;0.73;;;11.70;77.80;;;;;;5068772;28;20241;-82
2021/05/17 09:57:23;;;;;;;1.15;0.90;;;11.40;81.00;;;;;;5065125;28;20222;-80
2021/05/17 09:59:51;;;;;;;0.95;0.70;;;11.20;83.00;;;;;;5065287;28;20199;-81
2021/05/17 10:02:33;;;;;;;1.73;0.93;;;11.00;87.70;;;;;;5066363;28;20294;-82
2021/05/17 10:05:16;;;;;;;2.83;0.95;;;11.00;90.80;;;;;;5085468;28;20197;-83
2021/05/17 10:07:44;;;;;;;1.83;1.10;;;11.10;91.70;;;;;;5080977;28;20237;-82
2021/05/17 10:10:12;;;;;;;4.30;1.17;;;11.30;92.80;;;;;;5090426;28;20213;-81
2021/05/17 10:12:39;;;;;;;2.20;1.20;;;11.80;95.10;;;;;;5081262;28;20229;-82
2021/05/17 10:15:08;;;;;;;4.55;1.42;;;12.30;94.60;;;;;;5067801;28;20245;-82
2021/05/17 10:17:35;;;;;;;3.20;1.27;;;12.70;94.10;;;;;;5072173;28;20252;-80
2021/05/17 10:20:03;;;;;;;17.95;1.73;;;13.10;91.50;;;;;;5087169;28;20206;-81
2021/05/17 10:22:30;;;;;;;8.40;1.50;;;13.50;90.80;;;;;;5084044;28;20243;-80
2021/05/17 10:24:58;;;;;;;2.50;1.13;;;13.70;84.60;;;;;;5065124;28;20285;-80
2021/05/17 10:27:29;;;;;;;3.13;1.10;;;13.50;78.90;;;;;;5068415;28;20318;-82
2021/05/17 10:30:00;;;;;;;2.45;1.25;;;13.30;79.30;;;;;;5095047;28;20194;-80
2021/05/17 10:32:42;;;;;;;2.55;0.85;;;13.20;80.00;;;;;;5097104;28;20252;-80
2021/05/17 10:35:10;;;;;;;2.45;1.50;;;13.10;79.60;;;;;;5070062;28;20248;-80
2021/05/17 10:37:38;;;;;;;1.65;1.10;;;13.10;81.00;;;;;;5066322;28;20245;-81
2021/05/17 10:40:07;;;;;;;2.78;1.10;;;13.10;81.70;;;;;;5064614;28;20206;-81
2021/05/17 10:42:45;;;;;;;3.15;1.10;;;13.10;79.50;;;;;;5064277;28;20218;-80
2021/05/17 10:48:20;;;;;;;1.38;1.00;;;13.10;78.20;;;;;;5078961;28;20256;-80
2021/05/17 10:50:48;;;;;;;1.33;0.80;;;13.30;75.00;;;;;;5063439;28;20222;-79
2021/05/17 10:53:49;;;;;;;1.70;1.15;;;13.70;74.90;;;;;;5062260;28;20221;-80
2021/05/17 10:56:17;;;;;;;2.60;1.15;;;14.20;70.00;;;;;;5060547;28;20250;-81
2021/05/17 11:01:54;;;;;;;1.30;1.00;;;14.80;63.00;;;;;;5062853;28;20221;-78
2021/05/17 11:04:30;;;;;;;1.75;0.95;;;14.80;59.60;;;;;;5074050;28;20182;-80
2021/05/17 11:07:25;;;;;;;3.03;0.93;;;14.80;61.70;;;;;;5076159;28;20210;-79
2021/05/17 11:09:59;;;;;;;3.28;1.20;;;14.50;67.70;;;;;;5084030;28;20206;-81
2021/05/17 11:12:58;;;;;;;5.20;1.10;;;14.70;70.40;;;;;;5075006;28;20210;-81
2021/05/17 11:15:52;;;;;;;1.23;0.80;;;15.10;68.90;;;;;;5063595;28;20463;-81
2021/05/17 11:18:40;;;;;;;1.80;0.80;;;15.50;62.50;;;;;;5089451;28;20192;-81
2021/05/17 11:21:12;;;;;;;2.40;1.08;;;15.70;60.10;;;;;;5062076;28;20463;-82
2021/05/17 11:24:04;;;;;;;1.90;0.63;;;15.60;61.10;;;;;;5096684;28;20222;-79
2021/05/17 11:26:32;;;;;;;2.47;1.00;;;15.90;59.50;;;;;;5074791;28;20245;-80
2021/05/17 11:29:08;;;;;;;1.57;0.97;;;16.20;59.50;;;;;;5080339;28;20210;-80
2021/05/17 11:31:43;;;;;;;2.70;1.87;;;16.40;57.50;;;;;;5082393;28;20455;-78
2021/05/17 11:34:26;;;;;;;5.67;0.80;;;16.40;56.90;;;;;;5092675;28;20473;-77
2021/05/17 11:37:09;;;;;;;2.47;1.00;;;16.80;55.60;;;;;;5075597;28;20476;-78
2021/05/17 11:39:36;;;;;;;3.37;1.20;;;17.20;56.00;;;;;;5079955;28;20456;-79
2021/05/17 11:42:05;;;;;;;0.93;0.70;;;17.20;53.80;;;;;;5064477;28;20453;-79
2021/05/17 11:44:35;;;;;;;1.97;0.70;;;17.10;55.90;;;;;;5076982;28;20426;-78
2021/05/17 11:47:03;;;;;;;0.73;0.40;;;16.70;53.50;;;;;;5066511;28;20488;-80
2021/05/17 11:49:32;;;;;;;1.63;0.70;;;16.30;54.90;;;;;;5076513;28;20491;-79
2021/05/17 11:52:04;;;;;;;1.50;0.70;;;15.90;54.70;;;;;;5071115;28;20453;-79
2021/05/17 11:54:37;;;;;;;0.43;0.43;;;15.80;54.70;;;;;;5065249;28;20475;-79
2021/05/17 11:57:05;;;;;;;0.57;0.50;;;15.50;55.50;;;;;;5079247;28;20435;-79
2021/05/17 11:59:33;;;;;;;1.42;0.70;;;15.10;55.10;;;;;;5069917;28;20245;-79
2021/05/17 12:02:01;;;;;;;1.38;0.60;;;14.70;55.70;;;;;;5068892;28;20206;-80
2021/05/17 12:04:30;;;;;;;4.78;0.90;;;14.30;60.00;;;;;;5088227;28;20208;-80
2021/05/17 12:06:57;;;;;;;1.95;0.90;;;14.00;65.70;;;;;;5083003;28;20225;-80
2021/05/17 12:09:30;;;;;;;2.13;1.17;;;13.90;71.10;;;;;;5095118;28;20201;-80
2021/05/17 12:11:58;;;;;;;0.75;0.60;;;13.80;70.10;;;;;;5096492;28;20202;-78
2021/05/17 12:14:25;;;;;;;1.88;0.73;;;13.70;72.40;;;;;;5094105;28;20198;-79
2021/05/17 12:17:06;;;;;;;4.57;0.80;;;13.80;73.30;;;;;;5082672;28;20206;-78
2021/05/17 12:19:35;;;;;;;0.80;0.45;;;13.80;68.20;;;;;;5091646;28;20268;-80
2021/05/17 12:22:05;;;;;;;1.20;0.70;;;13.60;69.90;;;;;;5078977;28;20202;-81
2021/05/17 12:24:33;;;;;;;2.70;0.60;;;13.60;69.30;;;;;;5086915;28;20194;-80
2021/05/17 12:27:02;;;;;;;0.93;0.60;;;13.70;70.20;;;;;;5083036;28;20225;-81
2021/05/17 12:29:47;;;;;;;2.25;0.60;;;13.70;71.00;;;;;;5077338;28;20229;-80
2021/05/17 12:32:14;;;;;;;0.90;0.60;;;13.70;72.70;;;;;;5076218;28;20199;-82
2021/05/17 12:34:54;;;;;;;1.70;0.60;;;13.50;70.70;;;;;;5065163;28;20265;-81
2021/05/17 12:37:22;;;;;;;2.38;0.90;;;13.20;72.50;;;;;;5081300;28;20214;-81
2021/05/17 12:40:11;;;;;;;1.65;1.02;;;13.00;74.70;;;;;;5097087;28;20225;-80
2021/05/17 12:42:38;;;;;;;1.45;0.60;;;12.80;77.80;;;;;;5088592;28;20267;-81
2021/05/17 12:45:06;;;;;;;1.50;1.00;;;12.70;78.70;;;;;;5084752;28;20228;-81
2021/05/17 12:47:44;;;;;;;1.05;0.85;;;12.60;81.60;;;;;;5085178;28;20293;-82
2021/05/17 12:50:17;;;;;;;1.35;0.60;;;12.50;81.50;;;;;;5079008;28;20244;-82
2021/05/17 12:52:44;;;;;;;4.60;0.95;;;11.90;74.90;;;;;;5090313;28;20282;-82
2021/05/17 12:55:16;;;;;;;1.77;0.60;;;11.10;75.80;;;;;;5087283;28;20225;-81
2021/05/17 12:57:54;;;;;;;1.80;0.73;;;11.00;75.40;;;;;;5087366;28;20236;-81
2021/05/17 13:00:48;;;;;;;0.70;0.68;;;11.30;78.20;;;;;;5093428;28;20194;-81
2021/05/17 13:03:17;;;;;;;0.98;0.60;;;11.50;76.60;;;;;;5087508;28;20218;-83
2021/05/17 13:05:59;;;;;;;1.17;0.70;;;11.60;77.10;;;;;;5065638;28;20206;-81
2021/05/17 13:08:44;;;;;;;0.93;0.75;;;11.70;76.40;;;;;;5083926;28;20186;-81
2021/05/17 13:11:13;;;;;;;1.20;0.75;;;11.90;78.00;;;;;;5076928;28;20209;-81
2021/05/17 13:13:57;;;;;;;3.15;0.50;;;12.30;79.00;;;;;;5093675;28;20197;-79
2021/05/17 13:16:28;;;;;;;0.85;0.70;;;12.70;79.40;;;;;;5078534;28;20224;-80